Time;durP1;ratioP1;P1;durP2;ratioP2;P2;SDS_P1;SDS_P2;PMS_P1;PMS_P2;Temp;Humidity;BMP_temperature;BMP_pressure;BME280_temperature;BME280_humidity;BME280_pressure;Samples;Min_cycle;Max_cycle;Signal;HPM_P1;HPM_P2
2022/05/13 00:00:40;;;;;;;6.23;5.63;;;;;;;19.42;100.00;100538.31;5011904;28;20184;-76
2022/05/13 00:03:05;;;;;;;6.57;5.97;;;;;;;19.43;100.00;100542.63;5003877;28;20212;-77
2022/05/13 00:05:31;;;;;;;6.97;6.30;;;;;;;19.43;100.00;100547.88;5004218;28;20250;-77
2022/05/13 00:07:56;;;;;;;6.23;5.70;;;;;;;19.43;100.00;100547.88;5005958;28;20208;-76
2022/05/13 00:10:24;;;;;;;6.47;5.97;;;;;;;19.44;100.00;100549.56;4998007;28;20189;-76
2022/05/13 00:12:50;;;;;;;6.83;6.33;;;;;;;19.45;100.00;100545.19;4999121;28;20276;-77
2022/05/13 00:15:19;;;;;;;6.90;6.30;;;;;;;19.44;100.00;100543.47;4998618;28;20314;-77
2022/05/13 00:17:45;;;;;;;6.87;6.27;;;;;;;19.44;100.00;100544.31;5005354;28;20216;-77
2022/05/13 00:20:11;;;;;;;6.60;6.10;;;;;;;19.44;100.00;100539.06;5007583;28;20272;-76
2022/05/13 00:22:49;;;;;;;7.23;6.63;;;;;;;19.44;100.00;100540.84;5001477;28;20196;-76
2022/05/13 00:25:16;;;;;;;7.40;6.80;;;;;;;19.39;100.00;100534.94;5007159;28;20699;-77
2022/05/13 00:27:41;;;;;;;8.07;7.37;;;;;;;19.36;100.00;100532.47;5006633;28;20210;-75
2022/05/13 00:30:08;;;;;;;7.43;6.93;;;;;;;19.34;100.00;100528.13;5007087;28;20193;-76
2022/05/13 00:32:34;;;;;;;7.77;7.07;;;;;;;19.32;100.00;100527.34;5004085;28;20198;-76
2022/05/13 00:35:00;;;;;;;7.80;7.10;;;;;;;19.30;100.00;100528.28;4999974;28;20297;-76
2022/05/13 00:37:26;;;;;;;7.50;6.80;;;;;;;19.28;100.00;100536.25;5002427;28;20186;-75
2022/05/13 00:39:51;;;;;;;7.47;6.77;;;;;;;19.27;100.00;100531.91;5003740;28;20667;-75
2022/05/13 00:42:19;;;;;;;7.83;7.23;;;;;;;19.26;100.00;100527.56;5007291;28;20621;-75
2022/05/13 00:44:45;;;;;;;9.03;7.33;;;;;;;19.23;100.00;100537.34;5007371;28;20203;-75
2022/05/13 00:47:11;;;;;;;7.33;6.80;;;;;;;19.19;100.00;100534.84;5002352;28;20409;-74
2022/05/13 00:49:38;;;;;;;8.07;6.40;;;;;;;19.15;100.00;100538.50;5001164;28;20202;-75
2022/05/13 00:52:05;;;;;;;7.30;6.70;;;;;;;19.12;100.00;100532.53;5003815;28;20532;-75
2022/05/13 00:54:33;;;;;;;7.17;6.57;;;;;;;19.09;100.00;100530.03;5003576;28;20183;-75
2022/05/13 00:56:59;;;;;;;6.87;6.20;;;;;;;19.08;100.00;100530.94;5006999;28;20193;-74
2022/05/13 00:59:29;;;;;;;7.10;6.60;;;;;;;19.07;100.00;100532.72;5004477;28;20193;-75
2022/05/13 01:01:55;;;;;;;6.37;5.87;;;;;;;19.07;100.00;100529.25;5005891;28;20190;-75
2022/05/13 01:04:21;;;;;;;6.70;6.10;;;;;;;19.07;100.00;100537.97;5006816;28;20194;-74
2022/05/13 01:06:52;;;;;;;6.90;6.40;;;;;;;19.07;100.00;100532.72;5002905;28;20197;-74
2022/05/13 01:09:21;;;;;;;6.63;6.03;;;;;;;19.08;100.00;100536.19;5004618;28;20194;-74
2022/05/13 01:11:52;;;;;;;6.73;6.23;;;;;;;19.08;100.00;100526.56;5005292;28;20563;-75
2022/05/13 01:14:33;;;;;;;6.67;6.17;;;;;;;19.10;100.00;100529.13;5004959;28;20275;-75
2022/05/13 01:20:17;;;;;;;6.80;6.30;;;;;;;19.10;100.00;100526.50;4998011;28;20273;-75
2022/05/13 01:22:55;;;;;;;7.40;6.80;;;;;;;19.09;100.00;100530.03;4997131;28;20188;-75
2022/05/13 01:25:24;;;;;;;7.47;6.77;;;;;;;19.08;100.00;100530.94;5003990;28;20222;-75
2022/05/13 01:27:52;;;;;;;7.10;6.50;;;;;;;19.08;100.00;100536.19;5001159;28;20199;-76
2022/05/13 01:30:24;;;;;;;7.30;6.70;;;;;;;19.07;100.00;100542.34;5003331;28;20186;-77
2022/05/13 01:32:49;;;;;;;7.33;6.83;;;;;;;19.07;100.00;100552.84;5006230;28;20182;-75
2022/05/13 01:35:15;;;;;;;7.47;6.87;;;;;;;19.04;100.00;100545.97;5007311;28;20219;-74
2022/05/13 01:37:41;;;;;;;7.30;6.70;;;;;;;19.02;100.00;100553.91;5002063;28;20169;-75
2022/05/13 01:40:07;;;;;;;8.17;7.57;;;;;;;19.00;100.00;100553.09;5002187;28;20188;-75
2022/05/13 01:42:33;;;;;;;8.77;7.97;;;;;;;18.98;100.00;100551.47;5004149;28;20245;-75
2022/05/13 01:44:59;;;;;;;9.30;8.50;;;;;;;18.95;100.00;100538.47;4999465;28;20203;-75
2022/05/13 01:47:25;;;;;;;8.57;7.87;;;;;;;18.92;100.00;100546.44;5007839;28;20214;-75
2022/05/13 01:49:51;;;;;;;8.90;8.10;;;;;;;18.90;100.00;100551.75;5004435;28;21989;-75
2022/05/13 01:52:17;;;;;;;10.50;8.73;;;;;;;18.91;100.00;100547.34;5006053;28;20670;-75
2022/05/13 01:54:42;;;;;;;9.57;8.77;;;;;;;18.88;100.00;100543.09;5003053;28;20218;-75
2022/05/13 01:57:07;;;;;;;10.03;9.13;;;;;;;18.84;100.00;100542.31;5019842;28;20186;-75
2022/05/13 01:59:33;;;;;;;10.03;9.13;;;;;;;18.81;100.00;100545.09;4998774;28;20182;-74
2022/05/13 02:01:58;;;;;;;9.47;8.67;;;;;;;18.78;100.00;100544.34;5005280;28;20547;-74
2022/05/13 02:04:24;;;;;;;9.43;8.63;;;;;;;18.74;100.00;100539.22;5006132;28;20625;-75
2022/05/13 02:06:49;;;;;;;9.00;8.20;;;;;;;18.72;100.00;100535.81;5010445;28;20183;-75
2022/05/13 02:09:14;;;;;;;9.27;8.57;;;;;;;18.71;100.00;100534.09;5006941;28;20209;-75
2022/05/13 02:11:40;;;;;;;9.23;8.37;;;;;;;18.69;100.00;100537.69;5007007;28;20806;-75
2022/05/13 02:14:06;;;;;;;9.87;8.83;;;;;;;18.66;100.00;100535.19;5012410;28;20242;-74
2022/05/13 02:16:32;;;;;;;9.50;8.70;;;;;;;18.63;100.00;100541.41;5016291;28;20211;-75
2022/05/13 02:18:57;;;;;;;8.57;7.80;;;;;;;18.59;100.00;100540.66;5008265;28;20241;-75
2022/05/13 02:21:24;;;;;;;7.43;6.83;;;;;;;18.57;100.00;100539.88;5010126;28;20236;-77
2022/05/13 02:23:50;;;;;;;8.63;7.83;;;;;;;18.56;100.00;100545.19;5017323;28;20551;-76
2022/05/13 02:26:16;;;;;;;8.47;7.40;;;;;;;18.52;100.00;100538.34;5007689;28;20274;-75
2022/05/13 02:28:42;;;;;;;7.70;7.00;;;;;;;18.50;100.00;100532.31;5009106;28;20835;-75
2022/05/13 02:31:08;;;;;;;8.00;7.30;;;;;;;18.47;100.00;100533.28;5000091;28;20215;-74
2022/05/13 02:33:35;;;;;;;7.27;6.50;;;;;;;18.45;100.00;100532.47;5016923;28;20280;-74
2022/05/13 02:36:02;;;;;;;8.73;7.83;;;;;;;18.42;100.00;100533.47;5007399;28;20262;-74
2022/05/13 02:38:28;;;;;;;8.13;7.43;;;;;;;18.41;100.00;100539.63;5012694;28;20202;-74
2022/05/13 02:41:11;;;;;;;7.37;6.77;;;;;;;18.40;100.00;100534.41;5012986;28;20220;-75
2022/05/13 02:43:56;;;;;;;7.70;6.90;;;;;;;18.38;100.00;100541.47;5002135;28;20187;-73
2022/05/13 02:46:24;;;;;;;6.83;6.13;;;;;;;18.35;100.00;100537.22;5001295;28;20214;-75
2022/05/13 02:48:50;;;;;;;7.13;6.53;;;;;;;18.32;100.00;100532.06;4997107;28;20209;-75
2022/05/13 02:51:17;;;;;;;7.10;6.50;;;;;;;18.30;100.00;100538.28;5008459;28;20681;-74
2022/05/13 02:53:42;;;;;;;7.40;6.63;;;;;;;18.27;100.00;100540.13;5003470;28;20183;-75
2022/05/13 02:56:08;;;;;;;6.60;6.00;;;;;;;18.25;100.00;100539.31;5008515;28;20212;-76
2022/05/13 02:58:37;;;;;;;6.70;6.10;;;;;;;18.23;100.00;100527.19;5005359;28;20187;-76
2022/05/13 03:01:05;;;;;;;6.60;6.10;;;;;;;18.21;100.00;100529.00;5005461;28;20241;-74
2022/05/13 03:03:30;;;;;;;6.27;5.63;;;;;;;18.20;100.00;100527.31;5004300;28;20185;-74
2022/05/13 03:05:56;;;;;;;6.63;5.83;;;;;;;18.18;100.00;100516.03;5006685;28;20207;-75
2022/05/13 03:08:22;;;;;;;6.80;6.20;;;;;;;18.16;100.00;100518.72;5007315;28;20216;-75
2022/05/13 03:10:47;;;;;;;6.90;5.77;;;;;;;18.13;100.00;100526.66;5007243;28;20192;-75
2022/05/13 03:13:16;;;;;;;6.33;5.70;;;;;;;18.11;100.00;100526.75;5006451;28;20340;-75
2022/05/13 03:15:42;;;;;;;5.83;5.33;;;;;;;18.08;100.00;100518.13;5021101;28;20218;-75
2022/05/13 03:18:07;;;;;;;5.93;5.33;;;;;;;18.07;100.00;100519.91;5006833;28;20180;-75
2022/05/13 03:20:32;;;;;;;5.70;5.20;;;;;;;18.06;100.00;100509.50;5006484;28;20194;-75
2022/05/13 03:22:58;;;;;;;6.00;5.50;;;;;;;18.07;100.00;100511.19;5006035;28;20183;-75
2022/05/13 03:25:24;;;;;;;5.87;5.00;;;;;;;18.07;100.00;100526.91;5004344;28;20220;-74
2022/05/13 03:27:50;;;;;;;6.33;5.47;;;;;;;18.04;100.00;100512.16;5008710;28;20691;-75
2022/05/13 03:30:18;;;;;;;5.47;4.97;;;;;;;18.03;100.00;100520.06;4996685;28;20245;-74
2022/05/13 03:32:43;;;;;;;5.33;4.83;;;;;;;18.03;100.00;100523.53;5001998;28;20239;-75
2022/05/13 03:35:11;;;;;;;4.80;4.37;;;;;;;18.04;100.00;100540.97;5003177;28;20229;-75
2022/05/13 03:37:37;;;;;;;5.20;4.70;;;;;;;18.07;100.00;100533.00;5009187;28;20184;-75
2022/05/13 03:40:03;;;;;;;5.73;4.20;;;;;;;18.08;100.00;100532.09;5008563;28;20190;-75
2022/05/13 03:42:29;;;;;;;4.87;4.37;;;;;;;18.10;100.00;100537.25;5004769;28;20176;-75
2022/05/13 03:44:55;;;;;;;4.50;4.10;;;;;;;18.11;100.00;100537.22;5008340;28;20305;-76
2022/05/13 03:47:20;;;;;;;4.33;4.00;;;;;;;18.11;100.00;100531.09;4998928;28;20201;-76
2022/05/13 03:49:46;;;;;;;4.40;4.00;;;;;;;18.08;100.00;100524.22;5007517;28;20198;-75
2022/05/13 03:52:13;;;;;;;4.90;4.40;;;;;;;18.06;100.00;100520.81;5003637;28;20187;-75
2022/05/13 03:54:38;;;;;;;5.30;4.27;;;;;;;18.06;100.00;100517.34;5004191;28;20282;-75
2022/05/13 03:57:08;;;;;;;4.80;4.40;;;;;;;18.05;100.00;100521.72;5003786;28;20228;-75
2022/05/13 03:59:35;;;;;;;4.60;4.10;;;;;;;18.02;100.00;100526.22;5008306;28;20559;-75
2022/05/13 04:02:01;;;;;;;4.77;4.30;;;;;;;18.01;100.00;100533.19;5001149;28;20183;-75
2022/05/13 04:04:29;;;;;;;4.07;3.67;;;;;;;18.05;100.00;100544.44;4997937;28;20556;-75
2022/05/13 04:09:41;;;;;;;4.23;3.80;;;;;;;18.10;100.00;100535.50;5009179;28;20269;-74
2022/05/13 04:17:35;;;;;;;4.30;3.90;;;;;;;18.17;100.00;100540.50;5004829;28;20215;-74
2022/05/13 04:20:00;;;;;;;4.53;4.13;;;;;;;18.19;100.00;100550.03;5008042;28;20274;-73
2022/05/13 04:22:26;;;;;;;3.93;3.53;;;;;;;18.21;100.00;100548.22;5002394;28;20192;-74
2022/05/13 04:24:52;;;;;;;3.67;3.40;;;;;;;18.24;100.00;100548.06;4995880;28;20268;-74
2022/05/13 04:27:18;;;;;;;3.87;3.47;;;;;;;18.24;100.00;100544.63;5004635;28;20270;-74
2022/05/13 04:29:43;;;;;;;4.27;3.57;;;;;;;18.25;100.00;100549.78;5006465;28;20218;-75
2022/05/13 04:32:09;;;;;;;4.20;3.80;;;;;;;18.24;100.00;100561.19;5005965;28;20202;-75
2022/05/13 04:34:34;;;;;;;4.07;3.67;;;;;;;18.24;100.00;100552.47;5008990;28;20739;-75
2022/05/13 04:37:02;;;;;;;4.57;4.10;;;;;;;18.25;100.00;100565.50;5011684;28;20188;-75
2022/05/13 04:39:28;;;;;;;4.77;3.50;;;;;;;18.25;100.00;100559.44;4995651;28;20192;-75
2022/05/13 04:44:37;;;;;;;4.37;3.73;;;;;;;18.25;100.00;100568.13;4998174;28;20239;-75
2022/05/13 04:47:02;;;;;;;6.53;4.10;;;;;;;18.28;100.00;100575.03;5005817;28;20176;-74
2022/05/13 04:49:28;;;;;;;4.40;4.00;;;;;;;18.27;100.00;100565.47;5002659;28;20186;-74
2022/05/13 04:51:54;;;;;;;4.77;4.33;;;;;;;18.26;100.00;100566.38;5004386;28;20337;-75
2022/05/13 04:54:20;;;;;;;4.03;3.73;;;;;;;18.25;100.00;100570.75;5003055;28;20238;-74
2022/05/13 04:56:45;;;;;;;3.83;3.53;;;;;;;18.26;100.00;100580.31;5009866;28;20195;-75
2022/05/13 04:59:10;;;;;;;4.40;4.00;;;;;;;18.26;100.00;100580.31;5004824;28;20286;-74
2022/05/13 05:01:36;;;;;;;4.23;3.93;;;;;;;18.26;100.00;100576.84;5012346;28;20199;-74
2022/05/13 05:04:02;;;;;;;4.00;3.70;;;;;;;18.27;100.00;100584.66;5002885;28;20193;-75
2022/05/13 05:06:27;;;;;;;4.03;3.70;;;;;;;18.27;100.00;100581.19;5010510;28;20210;-74
2022/05/13 05:08:57;;;;;;;4.10;3.80;;;;;;;18.28;100.00;100586.38;5001113;28;20333;-75
2022/05/13 05:11:23;;;;;;;4.20;3.70;;;;;;;18.28;100.00;100590.75;5006216;28;20210;-75
2022/05/13 05:13:50;;;;;;;4.13;3.73;;;;;;;18.26;100.00;100593.41;5007343;28;20270;-74
2022/05/13 05:16:17;;;;;;;5.90;4.50;;;;;;;18.25;100.00;100586.47;5001035;28;20229;-75
2022/05/13 05:18:43;;;;;;;5.07;4.30;;;;;;;18.24;100.00;100592.63;5008862;28;20187;-77
2022/05/13 05:21:10;;;;;;;4.60;4.23;;;;;;;18.22;100.00;100591.84;5009763;28;20175;-75
2022/05/13 05:23:38;;;;;;;5.10;4.30;;;;;;;18.22;100.00;100593.59;5011925;28;20251;-74
2022/05/13 05:26:04;;;;;;;5.83;4.13;;;;;;;18.21;100.00;100591.88;4997622;28;20310;-74
2022/05/13 05:28:29;;;;;;;4.90;4.40;;;;;;;18.20;100.00;100588.41;5005549;28;20218;-74
2022/05/13 05:30:56;;;;;;;6.93;4.67;;;;;;;18.20;100.00;100595.41;5000836;28;20585;-75
2022/05/13 05:33:23;;;;;;;5.93;5.07;;;;;;;18.19;100.00;100599.81;5011321;28;20249;-74
2022/05/13 05:35:48;;;;;;;5.87;4.80;;;;;;;18.18;100.00;100603.34;5007746;28;20281;-73
2022/05/13 05:38:13;;;;;;;5.67;4.30;;;;;;;18.18;100.00;100602.47;5003186;28;20316;-74
2022/05/13 05:40:40;;;;;;;5.73;4.67;;;;;;;18.17;100.00;100596.38;5005849;28;20182;-74
2022/05/13 05:43:12;;;;;;;5.27;4.37;;;;;;;18.16;100.00;100607.75;5004558;28;20562;-74
2022/05/13 05:45:40;;;;;;;5.43;4.77;;;;;;;18.13;100.00;100608.75;5003537;28;20291;-75
2022/05/13 05:48:07;;;;;;;4.43;4.03;;;;;;;18.15;100.00;100607.84;5011841;28;20223;-75
2022/05/13 05:50:32;;;;;;;4.43;4.00;;;;;;;18.13;100.00;100606.13;5002688;28;20199;-74
2022/05/13 05:52:58;;;;;;;4.73;3.80;;;;;;;18.17;100.00;100603.38;5004344;28;20191;-74
2022/05/13 05:58:09;;;;;;;5.83;4.70;;;;;;;18.28;100.00;100609.09;5001017;28;20179;-74
2022/05/13 06:00:38;;;;;;;4.30;3.90;;;;;;;18.37;100.00;100614.00;5005006;28;20200;-75
2022/05/13 06:03:04;;;;;;;4.27;3.93;;;;;;;18.42;100.00;100612.06;5008621;28;20187;-74
2022/05/13 06:05:30;;;;;;;5.97;4.10;;;;;;;18.46;100.00;100615.44;5009591;28;20362;-76
2022/05/13 06:07:58;;;;;;;4.50;4.10;;;;;;;18.46;100.00;100622.41;5008983;28;20315;-76
2022/05/13 06:10:24;;;;;;;4.87;4.20;;;;;;;18.48;100.00;100623.22;5005276;28;20217;-76
2022/05/13 06:12:50;;;;;;;5.23;3.83;;;;;;;18.53;100.00;100622.13;5007648;28;20731;-75
2022/05/13 06:15:15;;;;;;;4.17;3.77;;;;;;;18.64;100.00;100621.75;5003909;28;20255;-76
2022/05/13 06:17:52;;;;;;;3.97;3.37;;;;;;;18.76;100.00;100623.06;5005454;28;20472;-75
2022/05/13 06:20:20;;;;;;;4.03;3.50;;;;;;;18.89;100.00;100626.91;5007551;28;20313;-75
2022/05/13 06:22:46;;;;;;;3.77;3.47;;;;;;;19.00;100.00;100633.53;5006916;28;20223;-75
2022/05/13 06:25:14;;;;;;;4.33;3.83;;;;;;;19.07;100.00;100635.03;5004454;28;20332;-75
2022/05/13 06:27:40;;;;;;;5.17;3.70;;;;;;;19.08;100.00;100643.72;5007499;28;20286;-75
2022/05/13 06:30:12;;;;;;;4.10;3.73;;;;;;;19.04;100.00;100646.50;5006875;28;20275;-76
2022/05/13 06:32:37;;;;;;;4.10;3.30;;;;;;;19.04;100.00;100646.50;5000586;28;20242;-74
2022/05/13 06:35:04;;;;;;;3.73;3.10;;;;;;;19.06;100.00;100649.06;5001312;28;20241;-76
2022/05/13 06:37:30;;;;;;;3.53;2.90;;;;;;;19.09;100.00;100650.69;5008541;28;20183;-75
2022/05/13 06:39:56;;;;;;;5.27;3.20;;;;;;;19.14;100.00;100654.84;5009623;28;20195;-75
2022/05/13 06:42:21;;;;;;;6.03;3.53;;;;;;;19.22;100.00;100649.28;5010710;28;20203;-74
2022/05/13 06:44:46;;;;;;;5.10;3.47;;;;;;;19.28;100.00;100661.34;5006343;28;20288;-75
2022/05/13 06:47:12;;;;;;;4.60;3.50;;;;;;;19.29;100.00;100666.53;5009470;28;20222;-76
2022/05/13 06:49:37;;;;;;;3.40;3.10;;;;;;;19.30;100.00;100670.84;5010889;28;20187;-75
2022/05/13 06:52:03;;;;;;;4.27;3.27;;;;;;;19.28;100.00;100677.09;5006030;28;20238;-75
2022/05/13 06:54:30;;;;;;;3.30;3.00;;;;;;;19.26;100.00;100673.66;5007942;28;20193;-75
2022/05/13 06:56:55;;;;;;;4.47;3.30;;;;;;;19.23;100.00;100674.63;5005668;28;20800;-75
2022/05/13 06:59:21;;;;;;;3.87;3.20;;;;;;;19.21;100.00;100675.59;5010152;28;20271;-75
2022/05/13 07:01:46;;;;;;;2.97;2.67;;;;;;;19.24;100.00;100671.09;5003258;28;20332;-75
2022/05/13 07:04:12;;;;;;;3.23;2.97;;;;;;;19.31;100.00;100677.81;5004532;28;20271;-75
2022/05/13 07:06:38;;;;;;;3.20;2.90;;;;;;;19.42;100.00;100680.03;5020782;28;20208;-75
2022/05/13 07:09:04;;;;;;;4.67;2.80;;;;;;;19.52;100.00;100685.72;5000243;28;20216;-76
2022/05/13 07:11:30;;;;;;;3.43;3.03;;;;;;;19.61;100.00;100684.50;5009961;28;20855;-75
2022/05/13 07:13:55;;;;;;;2.70;2.50;;;;;;;19.64;100.00;100684.41;5006432;28;20200;-75
2022/05/13 07:16:20;;;;;;;3.77;3.40;;;;;;;19.68;100.00;100695.63;5010618;28;20211;-74
2022/05/13 07:18:47;;;;;;;3.20;2.73;;;;;;;19.68;100.00;100691.25;5009896;28;20786;-75
2022/05/13 07:21:14;;;;;;;3.13;2.80;;;;;;;19.68;100.00;100686.00;5009942;28;20953;-75
2022/05/13 07:23:39;;;;;;;3.77;3.43;;;;;;;19.68;100.00;100696.50;5009230;28;20195;-75
2022/05/13 07:26:05;;;;;;;6.20;2.70;;;;;;;19.68;100.00;100701.75;5009543;28;20216;-76
2022/05/13 07:28:30;;;;;;;6.33;3.60;;;;;;;19.67;100.00;100699.16;5001618;28;20232;-75
2022/05/13 07:30:56;;;;;;;4.03;3.20;;;;;;;19.66;100.00;100706.19;5006824;28;20315;-75
2022/05/13 07:33:22;;;;;;;5.33;3.40;;;;;;;19.67;100.00;100710.53;5005059;28;20231;-75
2022/05/13 07:35:49;;;;;;;3.07;2.83;;;;;;;19.68;100.00;100709.63;4998390;28;20228;-76
2022/05/13 07:38:15;;;;;;;3.33;2.83;;;;;;;19.71;100.00;100706.00;4999421;28;20190;-76
2022/05/13 07:43:25;;;;;;;2.93;2.57;;;;;;;19.82;100.00;100710.81;5008080;28;20210;-73
2022/05/13 07:45:51;;;;;;;2.87;2.20;;;;;;;19.86;100.00;100725.53;5007108;28;20208;-75
2022/05/13 07:48:16;;;;;;;3.73;2.80;;;;;;;19.90;100.00;100720.13;5007009;28;20224;-75
2022/05/13 07:50:42;;;;;;;3.10;2.60;;;;;;;19.98;100.00;100716.31;5006407;28;20326;-76
2022/05/13 07:53:07;;;;;;;3.70;2.40;;;;;;;20.08;100.00;100710.63;5010831;28;20573;-75
2022/05/13 07:55:33;;;;;;;3.30;2.43;;;;;;;20.22;99.65;100717.06;5007311;28;20323;-75
2022/05/13 07:57:58;;;;;;;3.10;2.37;;;;;;;20.34;98.61;100721.81;5008040;28;20191;-75
2022/05/13 08:00:25;;;;;;;2.67;2.40;;;;;;;20.48;97.84;100721.22;5005086;28;20204;-74
2022/05/13 08:02:56;;;;;;;3.80;2.60;;;;;;;20.67;96.79;100721.25;5007429;28;20184;-74
2022/05/13 08:05:22;;;;;;;2.83;2.43;;;;;;;20.85;95.73;100719.63;5010226;28;20212;-74
2022/05/13 08:07:47;;;;;;;4.30;2.77;;;;;;;21.05;92.02;100725.72;5012082;28;20585;-75
2022/05/13 08:10:14;;;;;;;4.33;2.50;;;;;;;21.20;91.63;100731.19;5014611;28;20238;-75
2022/05/13 08:12:39;;;;;;;3.63;2.30;;;;;;;21.35;91.03;100727.00;5009088;28;20192;-75
2022/05/13 08:15:05;;;;;;;2.93;2.30;;;;;;;21.48;88.98;100730.78;5005406;28;20695;-74
2022/05/13 08:17:35;;;;;;;3.27;2.47;;;;;;;21.54;87.70;100727.84;5007561;28;20582;-75
2022/05/13 08:20:00;;;;;;;2.47;1.90;;;;;;;21.63;87.57;100729.19;5010712;28;20219;-75
2022/05/13 08:22:26;;;;;;;3.10;2.10;;;;;;;21.76;87.21;100732.97;5010337;28;20220;-75
2022/05/13 08:24:51;;;;;;;3.43;2.33;;;;;;;21.97;85.37;100735.44;5013292;28;20291;-74
2022/05/13 08:27:16;;;;;;;4.20;2.77;;;;;;;22.18;84.85;100722.97;5009000;28;20223;-75
2022/05/13 08:29:42;;;;;;;3.87;2.33;;;;;;;22.51;83.43;100722.22;5004023;28;20726;-75
2022/05/13 08:32:08;;;;;;;3.63;2.33;;;;;;;22.74;82.80;100722.78;5007141;28;20176;-74
2022/05/13 08:34:33;;;;;;;3.10;1.93;;;;;;;22.95;82.45;100726.06;5005600;28;20192;-75
2022/05/13 08:36:59;;;;;;;3.33;1.90;;;;;;;23.12;81.99;100724.28;5007096;28;20243;-76
2022/05/13 08:39:24;;;;;;;4.10;1.93;;;;;;;23.20;81.45;100719.47;5005824;28;20239;-75
2022/05/13 08:42:09;;;;;;;2.80;2.00;;;;;;;23.24;81.13;100721.00;5007307;28;20219;-75
2022/05/13 08:44:36;;;;;;;2.00;1.80;;;;;;;23.10;80.56;100720.88;5005328;28;20192;-75
2022/05/13 08:47:07;;;;;;;3.73;2.20;;;;;;;22.98;80.60;100725.03;5005835;28;20181;-75
2022/05/13 08:49:40;;;;;;;6.07;2.10;;;;;;;22.89;80.46;100715.00;4996187;28;20189;-74
2022/05/13 08:55:13;;;;;;;3.40;1.83;;;;;;;22.70;80.19;100718.59;5006167;28;20206;-74
2022/05/13 08:57:43;;;;;;;3.77;2.40;;;;;;;22.63;79.42;100720.72;5004665;28;20175;-74
2022/05/13 09:00:40;;;;;;;4.53;2.47;;;;;;;22.68;79.71;100717.84;5003521;28;20177;-76
2022/05/13 09:03:45;;;;;;;4.07;2.20;;;;;;;23.21;78.89;100718.53;5006087;28;20180;-74
2022/05/13 09:06:30;;;;;;;2.20;2.00;;;;;;;23.66;77.88;100721.31;5007910;28;20204;-76
2022/05/13 09:09:00;;;;;;;3.77;2.37;;;;;;;23.87;77.53;100716.59;5005776;28;20259;-76
2022/05/13 09:11:34;;;;;;;3.43;2.20;;;;;;;23.99;76.46;100722.13;5009765;28;20242;-77
2022/05/13 09:14:25;;;;;;;4.70;2.50;;;;;;;24.07;75.17;100721.66;5009329;28;20239;-75
2022/05/13 09:17:07;;;;;;;4.47;2.07;;;;;;;24.04;75.24;100723.56;5001923;28;20180;-75
2022/05/13 09:19:41;;;;;;;3.07;2.00;;;;;;;24.09;74.42;100730.38;5008657;28;20566;-75
2022/05/13 09:22:09;;;;;;;3.37;2.47;;;;;;;24.21;74.81;100732.28;5009662;28;20192;-74
2022/05/13 09:24:35;;;;;;;3.23;2.33;;;;;;;24.44;74.93;100730.03;5022602;28;20604;-74
2022/05/13 09:27:00;;;;;;;4.83;2.30;;;;;;;24.62;75.04;100728.94;5007587;28;20192;-75
2022/05/13 09:29:41;;;;;;;3.30;2.27;;;;;;;24.81;75.13;100725.19;5003920;28;20223;-75
2022/05/13 09:32:14;;;;;;;3.33;2.17;;;;;;;25.01;74.20;100725.75;5006623;28;20190;-75
2022/05/13 09:34:46;;;;;;;3.63;2.00;;;;;;;25.30;72.38;100718.56;5009783;28;20274;-75
2022/05/13 09:37:20;;;;;;;4.97;2.20;;;;;;;25.47;70.25;100721.97;5009072;28;20215;-76
2022/05/13 09:39:48;;;;;;;4.27;2.17;;;;;;;25.51;68.30;100716.38;5007441;28;20216;-75
2022/05/13 09:42:35;;;;;;;3.33;1.57;;;;;;;25.62;68.09;100720.97;5006106;28;20188;-76
2022/05/13 09:45:27;;;;;;;3.03;1.60;;;;;;;25.75;67.78;100714.84;5006309;28;20207;-75
2022/05/13 09:48:11;;;;;;;4.00;1.50;;;;;;;25.77;66.56;100721.78;5005242;28;20228;-76
2022/05/13 09:50:48;;;;;;;4.07;1.60;;;;;;;25.77;65.53;100719.13;5004698;28;20211;-76
2022/05/13 09:53:23;;;;;;;3.57;1.60;;;;;;;25.81;66.03;100719.75;5006180;28;20222;-75
2022/05/13 09:55:51;;;;;;;2.43;1.50;;;;;;;25.84;65.21;100706.31;5007241;28;20290;-76
2022/05/13 09:58:20;;;;;;;1.67;1.13;;;;;;;25.75;65.34;100714.84;5002300;28;20196;-76
2022/05/13 10:00:57;;;;;;;2.43;1.70;;;;;;;25.56;65.46;100708.13;5006043;28;20246;-75
2022/05/13 10:03:25;;;;;;;2.67;1.20;;;;;;;25.52;65.68;100706.63;5009090;28;20246;-75
2022/05/13 10:06:17;;;;;;;2.40;1.63;;;;;;;25.74;65.13;100715.81;5006478;28;20204;-75
2022/05/13 10:08:54;;;;;;;2.57;1.50;;;;;;;26.00;65.13;100711.41;4998052;28;20286;-74
2022/05/13 10:14:35;;;;;;;2.00;1.70;;;;;;;26.34;64.08;100695.88;5003623;28;20952;-75
2022/05/13 10:17:06;;;;;;;2.53;1.60;;;;;;;26.36;63.54;100696.63;4995700;28;20189;-76
2022/05/13 10:19:45;;;;;;;4.17;2.00;;;;;;;26.30;63.55;100700.56;5004972;28;20196;-77
2022/05/13 10:22:15;;;;;;;3.30;1.53;;;;;;;26.24;63.62;100695.66;5003622;28;20660;-74
2022/05/13 10:24:54;;;;;;;1.73;1.50;;;;;;;26.16;63.68;100693.53;5005992;28;20609;-76
2022/05/13 10:27:45;;;;;;;3.13;1.30;;;;;;;26.17;63.14;100697.91;5018588;28;20208;-75
2022/05/13 10:30:17;;;;;;;2.83;1.27;;;;;;;26.17;63.00;100700.53;5009772;28;20222;-75
2022/05/13 10:32:53;;;;;;;2.97;1.97;;;;;;;26.23;61.95;100685.19;5007286;28;20195;-75
2022/05/13 10:35:21;;;;;;;4.40;1.60;;;;;;;26.05;62.58;100698.69;5003457;28;20213;-75
2022/05/13 10:38:09;;;;;;;2.00;1.50;;;;;;;25.84;62.93;100695.69;5012139;28;20176;-75
2022/05/13 10:40:39;;;;;;;2.67;1.37;;;;;;;25.68;63.26;100688.78;5007704;28;20188;-76
2022/05/13 10:43:13;;;;;;;3.57;1.50;;;;;;;25.58;62.74;100689.47;5008148;28;20180;-75
2022/05/13 10:45:41;;;;;;;4.17;1.70;;;;;;;25.35;63.31;100683.84;5007127;28;20212;-75
2022/05/13 10:48:36;;;;;;;2.70;1.40;;;;;;;25.13;63.70;100698.47;5021891;28;20595;-75
2022/05/13 10:51:14;;;;;;;2.57;1.30;;;;;;;25.07;63.37;100690.91;4992455;28;20201;-75
2022/05/13 10:54:14;;;;;;;2.83;1.73;;;;;;;25.00;63.30;100686.97;5007851;28;20203;-76
2022/05/13 10:56:57;;;;;;;2.47;1.50;;;;;;;25.07;63.36;100693.56;5025183;28;20254;-74
2022/05/13 11:00:11;;;;;;;2.50;1.53;;;;;;;25.05;63.65;100691.03;5011627;28;20561;-75
2022/05/13 11:02:57;;;;;;;2.63;1.47;;;;;;;25.20;63.72;100693.63;4969019;28;20313;-75
2022/05/13 11:05:45;;;;;;;2.50;1.57;;;;;;;25.27;63.31;100681.69;4969071;28;20213;-75
2022/05/13 11:08:16;;;;;;;1.57;1.30;;;;;;;25.30;63.29;100678.00;5008414;28;20291;-75
2022/05/13 11:11:13;;;;;;;2.13;1.70;;;;;;;25.35;63.74;100689.13;5011798;28;20673;-75
2022/05/13 11:13:53;;;;;;;2.67;1.40;;;;;;;25.44;63.37;100680.63;5010413;28;20194;-76
2022/05/13 11:16:31;;;;;;;1.93;1.50;;;;;;;25.51;63.22;100683.72;5009460;28;20204;-74
2022/05/13 11:19:11;;;;;;;2.30;1.40;;;;;;;25.34;63.12;100684.78;5008275;28;20221;-75
2022/05/13 11:22:21;;;;;;;2.20;1.30;;;;;;;25.18;62.97;100680.50;5009026;28;20196;-75
2022/05/13 11:25:56;;;;;;;3.27;1.67;;;;;;;25.07;62.89;100677.69;4968300;28;20205;-76
2022/05/13 11:28:33;;;;;;;1.57;1.23;;;;;;;24.87;63.51;100671.88;4951036;28;20265;-75
2022/05/13 11:31:14;;;;;;;2.20;1.63;;;;;;;24.80;63.97;100667.91;5004565;28;20200;-75
2022/05/13 11:33:45;;;;;;;2.87;1.30;;;;;;;24.84;64.16;100672.06;5020340;28;20248;-75
2022/05/13 11:36:31;;;;;;;3.80;1.90;;;;;;;24.81;62.21;100674.91;5006709;28;20300;-74
2022/05/13 11:39:32;;;;;;;4.20;1.67;;;;;;;24.57;63.17;100669.31;5007230;28;20195;-75
2022/05/13 11:42:28;;;;;;;2.27;1.70;;;;;;;24.49;63.18;100664.47;4997560;28;20203;-74
2022/05/13 11:45:02;;;;;;;2.60;1.67;;;;;;;24.45;62.10;100666.47;5009900;28;20263;-75
2022/05/13 11:48:00;;;;;;;3.60;1.83;;;;;;;24.54;63.02;100665.06;5002553;28;20203;-75
2022/05/13 11:50:28;;;;;;;3.30;1.83;;;;;;;24.64;62.26;100674.13;5007748;28;20204;-76
2022/05/13 11:52:56;;;;;;;3.97;1.50;;;;;;;24.54;62.91;100670.34;5001909;28;20196;-74
2022/05/13 11:55:47;;;;;;;2.17;1.60;;;;;;;24.53;62.42;100666.00;5009715;28;20238;-75
2022/05/13 11:58:44;;;;;;;2.90;1.37;;;;;;;24.35;61.75;100668.81;5000625;28;20205;-75